sensor_id;sensor_type;location;lat;lon;timestamp;P1;durP1;ratioP1;P2;durP2;ratioP2
19347;SDS011;9810;52.480;9.806;2024-01-15T00:02:25;15.10;;;8.73;;
19347;SDS011;9810;52.480;9.806;2024-01-15T00:04:52;19.37;;;10.40;;
19347;SDS011;9810;52.480;9.806;2024-01-15T00:07:19;22.07;;;10.67;;
19347;SDS011;9810;52.480;9.806;2024-01-15T00:09:46;18.77;;;10.00;;
19347;SDS011;9810;52.480;9.806;2024-01-15T00:12:13;20.00;;;10.37;;
19347;SDS011;9810;52.480;9.806;2024-01-15T00:14:40;23.30;;;10.47;;
19347;SDS011;9810;52.480;9.806;2024-01-15T00:17:08;17.33;;;9.97;;
19347;SDS011;9810;52.480;9.806;2024-01-15T00:19:35;22.30;;;11.10;;
19347;SDS011;9810;52.480;9.806;2024-01-15T00:22:02;18.47;;;10.30;;
19347;SDS011;9810;52.480;9.806;2024-01-15T00:24:30;19.43;;;9.50;;
19347;SDS011;9810;52.480;9.806;2024-01-15T00:26:56;16.07;;;8.57;;
19347;SDS011;9810;52.480;9.806;2024-01-15T00:29:23;15.17;;;7.30;;
19347;SDS011;9810;52.480;9.806;2024-01-15T00:31:50;16.03;;;7.73;;
19347;SDS011;9810;52.480;9.806;2024-01-15T00:34:19;14.27;;;7.00;;
19347;SDS011;9810;52.480;9.806;2024-01-15T00:36:46;16.33;;;7.53;;
19347;SDS011;9810;52.480;9.806;2024-01-15T00:39:13;14.63;;;9.00;;
19347;SDS011;9810;52.480;9.806;2024-01-15T00:41:41;11.30;;;6.43;;
19347;SDS011;9810;52.480;9.806;2024-01-15T00:44:09;12.87;;;6.20;;
19347;SDS011;9810;52.480;9.806;2024-01-15T00:46:41;10.73;;;5.63;;
19347;SDS011;9810;52.480;9.806;2024-01-15T00:49:09;11.57;;;7.23;;
19347;SDS011;9810;52.480;9.806;2024-01-15T00:51:38;10.77;;;5.53;;
19347;SDS011;9810;52.480;9.806;2024-01-15T00:54:05;11.13;;;5.53;;
19347;SDS011;9810;52.480;9.806;2024-01-15T00:56:32;16.07;;;5.10;;
19347;SDS011;9810;52.480;9.806;2024-01-15T00:58:59;11.53;;;5.17;;
19347;SDS011;9810;52.480;9.806;2024-01-15T01:01:26;15.53;;;5.60;;
19347;SDS011;9810;52.480;9.806;2024-01-15T01:03:53;12.57;;;6.83;;
19347;SDS011;9810;52.480;9.806;2024-01-15T01:06:20;8.10;;;5.10;;
19347;SDS011;9810;52.480;9.806;2024-01-15T01:08:49;10.23;;;5.60;;
19347;SDS011;9810;52.480;9.806;2024-01-15T01:11:16;10.80;;;5.27;;
19347;SDS011;9810;52.480;9.806;2024-01-15T01:13:42;13.47;;;5.03;;
19347;SDS011;9810;52.480;9.806;2024-01-15T01:16:09;11.83;;;5.17;;
19347;SDS011;9810;52.480;9.806;2024-01-15T01:18:36;9.77;;;4.57;;
19347;SDS011;9810;52.480;9.806;2024-01-15T01:21:03;12.87;;;4.53;;
19347;SDS011;9810;52.480;9.806;2024-01-15T01:23:30;11.07;;;4.60;;
19347;SDS011;9810;52.480;9.806;2024-01-15T01:25:59;9.67;;;4.53;;
19347;SDS011;9810;52.480;9.806;2024-01-15T01:28:25;10.60;;;3.97;;
19347;SDS011;9810;52.480;9.806;2024-01-15T01:30:52;8.83;;;3.20;;
19347;SDS011;9810;52.480;9.806;2024-01-15T01:33:19;9.13;;;3.27;;
19347;SDS011;9810;52.480;9.806;2024-01-15T01:35:46;6.53;;;3.20;;
19347;SDS011;9810;52.480;9.806;2024-01-15T01:38:13;9.63;;;3.67;;
19347;SDS011;9810;52.480;9.806;2024-01-15T01:40:40;8.17;;;2.73;;
19347;SDS011;9810;52.480;9.806;2024-01-15T01:43:10;9.43;;;3.30;;
19347;SDS011;9810;52.480;9.806;2024-01-15T01:45:37;6.63;;;2.57;;
19347;SDS011;9810;52.480;9.806;2024-01-15T01:48:05;10.67;;;2.77;;
19347;SDS011;9810;52.480;9.806;2024-01-15T01:50:32;9.03;;;2.57;;
19347;SDS011;9810;52.480;9.806;2024-01-15T01:53:00;8.73;;;2.27;;
19347;SDS011;9810;52.480;9.806;2024-01-15T01:55:29;8.47;;;2.73;;
19347;SDS011;9810;52.480;9.806;2024-01-15T01:57:58;9.00;;;2.73;;
19347;SDS011;9810;52.480;9.806;2024-01-15T02:00:28;7.63;;;2.37;;
19347;SDS011;9810;52.480;9.806;2024-01-15T02:02:56;5.27;;;1.97;;
19347;SDS011;9810;52.480;9.806;2024-01-15T02:05:23;7.00;;;2.63;;
19347;SDS011;9810;52.480;9.806;2024-01-15T02:07:49;5.37;;;2.30;;
19347;SDS011;9810;52.480;9.806;2024-01-15T02:10:16;11.47;;;1.73;;
19347;SDS011;9810;52.480;9.806;2024-01-15T02:12:43;7.50;;;1.83;;
19347;SDS011;9810;52.480;9.806;2024-01-15T02:15:13;4.57;;;1.70;;
19347;SDS011;9810;52.480;9.806;2024-01-15T02:18:01;7.07;;;2.47;;
19347;SDS011;9810;52.480;9.806;2024-01-15T02:20:29;9.20;;;2.60;;
19347;SDS011;9810;52.480;9.806;2024-01-15T02:23:05;7.50;;;2.60;;
19347;SDS011;9810;52.480;9.806;2024-01-15T02:25:35;7.73;;;1.77;;
19347;SDS011;9810;52.480;9.806;2024-01-15T02:28:03;9.33;;;1.90;;
19347;SDS011;9810;52.480;9.806;2024-01-15T02:30:31;8.17;;;1.87;;
19347;SDS011;9810;52.480;9.806;2024-01-15T02:32:58;8.40;;;1.67;;
19347;SDS011;9810;52.480;9.806;2024-01-15T02:35:25;8.40;;;1.90;;
19347;SDS011;9810;52.480;9.806;2024-01-15T02:37:52;9.00;;;1.93;;
19347;SDS011;9810;52.480;9.806;2024-01-15T02:40:21;11.23;;;2.23;;
19347;SDS011;9810;52.480;9.806;2024-01-15T02:42:48;9.43;;;1.73;;
19347;SDS011;9810;52.480;9.806;2024-01-15T02:45:15;7.00;;;3.70;;
19347;SDS011;9810;52.480;9.806;2024-01-15T02:47:41;6.20;;;1.60;;
19347;SDS011;9810;52.480;9.806;2024-01-15T02:50:08;5.37;;;1.70;;
19347;SDS011;9810;52.480;9.806;2024-01-15T02:52:35;7.77;;;1.60;;
19347;SDS011;9810;52.480;9.806;2024-01-15T02:55:02;6.77;;;1.63;;
19347;SDS011;9810;52.480;9.806;2024-01-15T02:57:31;11.07;;;1.70;;
19347;SDS011;9810;52.480;9.806;2024-01-15T02:59:58;6.23;;;1.40;;
19347;SDS011;9810;52.480;9.806;2024-01-15T03:02:25;16.43;;;1.93;;
19347;SDS011;9810;52.480;9.806;2024-01-15T03:04:52;7.77;;;1.67;;
19347;SDS011;9810;52.480;9.806;2024-01-15T03:07:19;4.50;;;1.27;;
19347;SDS011;9810;52.480;9.806;2024-01-15T03:09:46;3.43;;;1.13;;
19347;SDS011;9810;52.480;9.806;2024-01-15T03:12:13;7.37;;;1.50;;
19347;SDS011;9810;52.480;9.806;2024-01-15T03:14:41;8.37;;;1.30;;
19347;SDS011;9810;52.480;9.806;2024-01-15T03:17:08;13.77;;;1.30;;
19347;SDS011;9810;52.480;9.806;2024-01-15T03:19:36;5.43;;;1.43;;
19347;SDS011;9810;52.480;9.806;2024-01-15T03:22:03;6.93;;;1.47;;
19347;SDS011;9810;52.480;9.806;2024-01-15T03:24:31;6.47;;;1.57;;
19347;SDS011;9810;52.480;9.806;2024-01-15T03:26:58;9.97;;;1.37;;
19347;SDS011;9810;52.480;9.806;2024-01-15T03:29:25;9.13;;;1.40;;
19347;SDS011;9810;52.480;9.806;2024-01-15T03:31:54;6.80;;;1.47;;
19347;SDS011;9810;52.480;9.806;2024-01-15T03:34:21;7.63;;;1.27;;
19347;SDS011;9810;52.480;9.806;2024-01-15T03:36:48;7.83;;;1.40;;
19347;SDS011;9810;52.480;9.806;2024-01-15T03:39:15;11.40;;;1.13;;
19347;SDS011;9810;52.480;9.806;2024-01-15T03:41:42;8.13;;;1.00;;
19347;SDS011;9810;52.480;9.806;2024-01-15T03:44:09;5.93;;;1.07;;
19347;SDS011;9810;52.480;9.806;2024-01-15T03:46:35;4.97;;;0.90;;
19347;SDS011;9810;52.480;9.806;2024-01-15T03:49:04;6.20;;;0.90;;
19347;SDS011;9810;52.480;9.806;2024-01-15T03:51:31;11.10;;;1.30;;
19347;SDS011;9810;52.480;9.806;2024-01-15T03:53:58;6.80;;;1.43;;
19347;SDS011;9810;52.480;9.806;2024-01-15T03:56:25;6.83;;;1.10;;
19347;SDS011;9810;52.480;9.806;2024-01-15T03:58:52;3.30;;;1.03;;
19347;SDS011;9810;52.480;9.806;2024-01-15T04:01:19;11.83;;;1.73;;
19347;SDS011;9810;52.480;9.806;2024-01-15T04:03:46;4.77;;;1.20;;
19347;SDS011;9810;52.480;9.806;2024-01-15T04:06:14;11.40;;;1.00;;
19347;SDS011;9810;52.480;9.806;2024-01-15T04:08:41;6.00;;;1.53;;
19347;SDS011;9810;52.480;9.806;2024-01-15T04:11:08;8.50;;;1.30;;
19347;SDS011;9810;52.480;9.806;2024-01-15T04:13:35;5.57;;;1.03;;
19347;SDS011;9810;52.480;9.806;2024-01-15T04:16:02;6.53;;;1.40;;
19347;SDS011;9810;52.480;9.806;2024-01-15T04:18:30;3.60;;;1.10;;
19347;SDS011;9810;52.480;9.806;2024-01-15T04:20:57;7.13;;;1.70;;
19347;SDS011;9810;52.480;9.806;2024-01-15T04:23:25;5.13;;;1.00;;
19347;SDS011;9810;52.480;9.806;2024-01-15T04:25:52;7.23;;;1.20;;
19347;SDS011;9810;52.480;9.806;2024-01-15T04:28:19;9.83;;;1.50;;
19347;SDS011;9810;52.480;9.806;2024-01-15T04:30:46;5.13;;;1.00;;
19347;SDS011;9810;52.480;9.806;2024-01-15T04:33:13;9.80;;;1.10;;
19347;SDS011;9810;52.480;9.806;2024-01-15T04:35:40;9.43;;;1.73;;
19347;SDS011;9810;52.480;9.806;2024-01-15T04:38:07;6.10;;;1.23;;
19347;SDS011;9810;52.480;9.806;2024-01-15T04:40:35;7.83;;;1.27;;
19347;SDS011;9810;52.480;9.806;2024-01-15T04:43:02;4.40;;;0.97;;
19347;SDS011;9810;52.480;9.806;2024-01-15T04:45:29;7.53;;;1.83;;
19347;SDS011;9810;52.480;9.806;2024-01-15T04:47:56;6.57;;;1.40;;
19347;SDS011;9810;52.480;9.806;2024-01-15T04:50:23;8.13;;;1.67;;
19347;SDS011;9810;52.480;9.806;2024-01-15T04:52:50;5.87;;;1.27;;
19347;SDS011;9810;52.480;9.806;2024-01-15T04:55:17;7.37;;;2.30;;
19347;SDS011;9810;52.480;9.806;2024-01-15T04:57:46;6.23;;;0.93;;
19347;SDS011;9810;52.480;9.806;2024-01-15T05:00:13;4.80;;;1.30;;
19347;SDS011;9810;52.480;9.806;2024-01-15T05:02:40;9.17;;;2.57;;
19347;SDS011;9810;52.480;9.806;2024-01-15T05:05:07;7.40;;;1.57;;
19347;SDS011;9810;52.480;9.806;2024-01-15T05:07:34;7.60;;;1.40;;
19347;SDS011;9810;52.480;9.806;2024-01-15T05:10:01;6.03;;;1.37;;
19347;SDS011;9810;52.480;9.806;2024-01-15T05:12:29;12.33;;;1.40;;
19347;SDS011;9810;52.480;9.806;2024-01-15T05:14:57;9.13;;;1.20;;
19347;SDS011;9810;52.480;9.806;2024-01-15T05:17:24;5.23;;;1.20;;
19347;SDS011;9810;52.480;9.806;2024-01-15T05:19:51;7.27;;;1.67;;
19347;SDS011;9810;52.480;9.806;2024-01-15T05:22:18;11.57;;;2.77;;
19347;SDS011;9810;52.480;9.806;2024-01-15T05:24:46;5.83;;;1.47;;
19347;SDS011;9810;52.480;9.806;2024-01-15T05:27:13;11.53;;;1.40;;
19347;SDS011;9810;52.480;9.806;2024-01-15T05:29:40;6.33;;;1.30;;
19347;SDS011;9810;52.480;9.806;2024-01-15T05:32:08;4.20;;;1.00;;
19347;SDS011;9810;52.480;9.806;2024-01-15T05:34:35;9.27;;;1.17;;
19347;SDS011;9810;52.480;9.806;2024-01-15T05:37:02;5.93;;;1.33;;
19347;SDS011;9810;52.480;9.806;2024-01-15T05:39:29;7.13;;;2.00;;
19347;SDS011;9810;52.480;9.806;2024-01-15T05:41:56;9.07;;;1.63;;
19347;SDS011;9810;52.480;9.806;2024-01-15T05:44:24;7.30;;;1.20;;
19347;SDS011;9810;52.480;9.806;2024-01-15T05:46:51;4.67;;;1.33;;
19347;SDS011;9810;52.480;9.806;2024-01-15T05:49:19;8.47;;;1.00;;
19347;SDS011;9810;52.480;9.806;2024-01-15T05:51:46;15.03;;;2.30;;
19347;SDS011;9810;52.480;9.806;2024-01-15T05:54:13;6.73;;;1.37;;
19347;SDS011;9810;52.480;9.806;2024-01-15T05:56:40;4.90;;;1.47;;
19347;SDS011;9810;52.480;9.806;2024-01-15T05:59:07;7.23;;;1.30;;
19347;SDS011;9810;52.480;9.806;2024-01-15T06:01:34;9.27;;;1.77;;
19347;SDS011;9810;52.480;9.806;2024-01-15T06:04:01;6.40;;;1.17;;
19347;SDS011;9810;52.480;9.806;2024-01-15T06:06:29;7.97;;;1.13;;
19347;SDS011;9810;52.480;9.806;2024-01-15T06:08:56;2.63;;;0.80;;
19347;SDS011;9810;52.480;9.806;2024-01-15T06:11:30;8.50;;;1.17;;
19347;SDS011;9810;52.480;9.806;2024-01-15T06:13:57;4.43;;;0.90;;
19347;SDS011;9810;52.480;9.806;2024-01-15T06:16:24;7.00;;;1.20;;
19347;SDS011;9810;52.480;9.806;2024-01-15T06:18:51;5.13;;;1.20;;
19347;SDS011;9810;52.480;9.806;2024-01-15T06:21:18;2.87;;;1.27;;
19347;SDS011;9810;52.480;9.806;2024-01-15T06:23:46;1.93;;;1.10;;
19347;SDS011;9810;52.480;9.806;2024-01-15T06:26:13;9.20;;;2.20;;
19347;SDS011;9810;52.480;9.806;2024-01-15T06:28:40;7.33;;;1.20;;
19347;SDS011;9810;52.480;9.806;2024-01-15T06:31:07;5.27;;;1.10;;
19347;SDS011;9810;52.480;9.806;2024-01-15T06:33:34;10.53;;;1.83;;
19347;SDS011;9810;52.480;9.806;2024-01-15T06:36:01;5.03;;;1.63;;
19347;SDS011;9810;52.480;9.806;2024-01-15T06:38:28;7.53;;;1.57;;
19347;SDS011;9810;52.480;9.806;2024-01-15T06:40:56;4.63;;;1.30;;
19347;SDS011;9810;52.480;9.806;2024-01-15T06:43:23;7.07;;;1.50;;
19347;SDS011;9810;52.480;9.806;2024-01-15T06:45:50;5.57;;;1.30;;
19347;SDS011;9810;52.480;9.806;2024-01-15T06:48:17;4.33;;;1.47;;
19347;SDS011;9810;52.480;9.806;2024-01-15T06:50:44;3.17;;;1.00;;
19347;SDS011;9810;52.480;9.806;2024-01-15T06:53:11;5.43;;;1.13;;
19347;SDS011;9810;52.480;9.806;2024-01-15T06:55:38;6.10;;;1.20;;
19347;SDS011;9810;52.480;9.806;2024-01-15T06:58:07;8.93;;;1.37;;
19347;SDS011;9810;52.480;9.806;2024-01-15T07:00:34;9.83;;;1.37;;
19347;SDS011;9810;52.480;9.806;2024-01-15T07:03:01;7.50;;;1.10;;
19347;SDS011;9810;52.480;9.806;2024-01-15T07:05:28;9.50;;;2.03;;
19347;SDS011;9810;52.480;9.806;2024-01-15T07:07:55;7.27;;;1.43;;
19347;SDS011;9810;52.480;9.806;2024-01-15T07:10:22;3.97;;;1.60;;
19347;SDS011;9810;52.480;9.806;2024-01-15T07:12:49;5.00;;;1.10;;
19347;SDS011;9810;52.480;9.806;2024-01-15T07:15:18;5.83;;;1.23;;
19347;SDS011;9810;52.480;9.806;2024-01-15T07:17:45;5.73;;;1.10;;
19347;SDS011;9810;52.480;9.806;2024-01-15T07:20:12;4.90;;;0.90;;
19347;SDS011;9810;52.480;9.806;2024-01-15T07:22:38;5.40;;;0.90;;
19347;SDS011;9810;52.480;9.806;2024-01-15T07:25:06;4.03;;;1.10;;
19347;SDS011;9810;52.480;9.806;2024-01-15T07:27:33;4.97;;;1.33;;
19347;SDS011;9810;52.480;9.806;2024-01-15T07:30:00;7.77;;;0.93;;
19347;SDS011;9810;52.480;9.806;2024-01-15T07:32:30;4.47;;;1.20;;
19347;SDS011;9810;52.480;9.806;2024-01-15T07:34:57;4.97;;;1.20;;
19347;SDS011;9810;52.480;9.806;2024-01-15T07:37:24;2.37;;;0.80;;
19347;SDS011;9810;52.480;9.806;2024-01-15T07:39:51;4.67;;;1.30;;
19347;SDS011;9810;52.480;9.806;2024-01-15T07:42:18;2.97;;;1.00;;
19347;SDS011;9810;52.480;9.806;2024-01-15T07:44:45;3.33;;;1.10;;
19347;SDS011;9810;52.480;9.806;2024-01-15T07:47:12;5.97;;;1.20;;
19347;SDS011;9810;52.480;9.806;2024-01-15T07:49:41;8.07;;;1.20;;
19347;SDS011;9810;52.480;9.806;2024-01-15T07:52:08;3.33;;;0.90;;
19347;SDS011;9810;52.480;9.806;2024-01-15T07:54:37;1.23;;;0.90;;
19347;SDS011;9810;52.480;9.806;2024-01-15T07:57:04;4.77;;;1.63;;
19347;SDS011;9810;52.480;9.806;2024-01-15T07:59:31;2.77;;;1.20;;
19347;SDS011;9810;52.480;9.806;2024-01-15T08:01:58;6.07;;;1.13;;
19347;SDS011;9810;52.480;9.806;2024-01-15T08:04:26;4.90;;;0.97;;
19347;SDS011;9810;52.480;9.806;2024-01-15T08:06:54;2.50;;;0.80;;
19347;SDS011;9810;52.480;9.806;2024-01-15T08:09:22;3.65;;;1.17;;
19347;SDS011;9810;52.480;9.806;2024-01-15T08:11:49;2.67;;;0.97;;
19347;SDS011;9810;52.480;9.806;2024-01-15T08:14:16;2.37;;;0.97;;
19347;SDS011;9810;52.480;9.806;2024-01-15T08:16:44;2.77;;;0.90;;
19347;SDS011;9810;52.480;9.806;2024-01-15T08:19:11;1.53;;;1.10;;
19347;SDS011;9810;52.480;9.806;2024-01-15T08:21:39;4.03;;;1.20;;
19347;SDS011;9810;52.480;9.806;2024-01-15T08:24:08;2.67;;;0.80;;
19347;SDS011;9810;52.480;9.806;2024-01-15T08:26:35;6.30;;;1.03;;
19347;SDS011;9810;52.480;9.806;2024-01-15T08:29:02;5.67;;;1.10;;
19347;SDS011;9810;52.480;9.806;2024-01-15T08:31:29;5.23;;;1.40;;
19347;SDS011;9810;52.480;9.806;2024-01-15T08:33:56;3.03;;;1.17;;
19347;SDS011;9810;52.480;9.806;2024-01-15T08:36:24;2.53;;;1.07;;
19347;SDS011;9810;52.480;9.806;2024-01-15T08:38:51;8.37;;;3.13;;
19347;SDS011;9810;52.480;9.806;2024-01-15T08:41:19;6.67;;;1.67;;
19347;SDS011;9810;52.480;9.806;2024-01-15T08:43:46;3.50;;;1.30;;
19347;SDS011;9810;52.480;9.806;2024-01-15T08:46:13;5.83;;;1.20;;
19347;SDS011;9810;52.480;9.806;2024-01-15T08:48:40;3.43;;;1.27;;
19347;SDS011;9810;52.480;9.806;2024-01-15T08:51:07;2.67;;;1.20;;
19347;SDS011;9810;52.480;9.806;2024-01-15T08:53:34;3.00;;;1.10;;
19347;SDS011;9810;52.480;9.806;2024-01-15T08:56:01;2.40;;;1.03;;
19347;SDS011;9810;52.480;9.806;2024-01-15T08:58:30;2.00;;;1.33;;
19347;SDS011;9810;52.480;9.806;2024-01-15T09:00:56;5.23;;;1.20;;
19347;SDS011;9810;52.480;9.806;2024-01-15T09:03:24;3.33;;;1.20;;
19347;SDS011;9810;52.480;9.806;2024-01-15T09:05:50;3.53;;;0.93;;
19347;SDS011;9810;52.480;9.806;2024-01-15T09:08:17;3.63;;;1.30;;
19347;SDS011;9810;52.480;9.806;2024-01-15T09:10:44;6.67;;;1.90;;
19347;SDS011;9810;52.480;9.806;2024-01-15T09:13:12;4.73;;;1.27;;
19347;SDS011;9810;52.480;9.806;2024-01-15T09:15:40;4.77;;;1.50;;
19347;SDS011;9810;52.480;9.806;2024-01-15T09:18:08;7.13;;;1.57;;
19347;SDS011;9810;52.480;9.806;2024-01-15T09:20:35;4.27;;;1.03;;
19347;SDS011;9810;52.480;9.806;2024-01-15T09:23:03;3.10;;;1.10;;
19347;SDS011;9810;52.480;9.806;2024-01-15T09:25:30;4.43;;;1.90;;
19347;SDS011;9810;52.480;9.806;2024-01-15T09:27:57;8.80;;;1.70;;
19347;SDS011;9810;52.480;9.806;2024-01-15T09:30:24;5.17;;;1.87;;
19347;SDS011;9810;52.480;9.806;2024-01-15T09:32:53;5.40;;;1.73;;
19347;SDS011;9810;52.480;9.806;2024-01-15T09:35:20;5.77;;;2.40;;
19347;SDS011;9810;52.480;9.806;2024-01-15T09:37:50;5.53;;;1.20;;
19347;SDS011;9810;52.480;9.806;2024-01-15T09:40:17;8.77;;;1.60;;
19347;SDS011;9810;52.480;9.806;2024-01-15T09:42:47;5.00;;;1.53;;
19347;SDS011;9810;52.480;9.806;2024-01-15T09:45:14;12.87;;;3.07;;
19347;SDS011;9810;52.480;9.806;2024-01-15T09:47:42;5.43;;;1.37;;
19347;SDS011;9810;52.480;9.806;2024-01-15T09:50:11;7.30;;;1.40;;
19347;SDS011;9810;52.480;9.806;2024-01-15T09:52:39;4.53;;;1.40;;
19347;SDS011;9810;52.480;9.806;2024-01-15T09:55:07;3.67;;;1.13;;
19347;SDS011;9810;52.480;9.806;2024-01-15T09:57:37;3.97;;;1.40;;
19347;SDS011;9810;52.480;9.806;2024-01-15T10:00:07;5.23;;;1.27;;
19347;SDS011;9810;52.480;9.806;2024-01-15T10:02:36;4.90;;;1.10;;
19347;SDS011;9810;52.480;9.806;2024-01-15T10:05:03;6.00;;;1.00;;
19347;SDS011;9810;52.480;9.806;2024-01-15T10:07:31;3.10;;;1.30;;
19347;SDS011;9810;52.480;9.806;2024-01-15T10:10:02;6.73;;;1.53;;
19347;SDS011;9810;52.480;9.806;2024-01-15T10:12:29;3.30;;;1.40;;
19347;SDS011;9810;52.480;9.806;2024-01-15T10:14:56;0.83;;;0.70;;
19347;SDS011;9810;52.480;9.806;2024-01-15T10:17:23;0.70;;;0.70;;
19347;SDS011;9810;52.480;9.806;2024-01-15T10:19:52;2.93;;;0.87;;
19347;SDS011;9810;52.480;9.806;2024-01-15T10:22:19;6.57;;;0.90;;
19347;SDS011;9810;52.480;9.806;2024-01-15T10:24:47;1.10;;;1.00;;
19347;SDS011;9810;52.480;9.806;2024-01-15T10:27:14;3.57;;;1.17;;
19347;SDS011;9810;52.480;9.806;2024-01-15T10:29:42;3.40;;;1.00;;
19347;SDS011;9810;52.480;9.806;2024-01-15T10:32:09;4.20;;;0.80;;
19347;SDS011;9810;52.480;9.806;2024-01-15T10:34:37;2.67;;;0.87;;
19347;SDS011;9810;52.480;9.806;2024-01-15T10:37:07;6.93;;;1.20;;
19347;SDS011;9810;52.480;9.806;2024-01-15T10:39:34;3.77;;;0.87;;
19347;SDS011;9810;52.480;9.806;2024-01-15T10:42:03;7.73;;;1.80;;
19347;SDS011;9810;52.480;9.806;2024-01-15T10:44:31;3.17;;;1.10;;
19347;SDS011;9810;52.480;9.806;2024-01-15T10:46:59;5.07;;;0.90;;
19347;SDS011;9810;52.480;9.806;2024-01-15T10:49:26;6.43;;;1.37;;
19347;SDS011;9810;52.480;9.806;2024-01-15T10:51:54;2.90;;;1.33;;
19347;SDS011;9810;52.480;9.806;2024-01-15T10:54:22;3.97;;;0.90;;
19347;SDS011;9810;52.480;9.806;2024-01-15T10:56:49;4.40;;;1.40;;
19347;SDS011;9810;52.480;9.806;2024-01-15T10:59:20;6.97;;;1.40;;
19347;SDS011;9810;52.480;9.806;2024-01-15T11:01:48;4.90;;;1.20;;
19347;SDS011;9810;52.480;9.806;2024-01-15T11:04:18;4.63;;;1.30;;
19347;SDS011;9810;52.480;9.806;2024-01-15T11:06:47;3.80;;;1.20;;
19347;SDS011;9810;52.480;9.806;2024-01-15T11:09:16;6.30;;;1.50;;
19347;SDS011;9810;52.480;9.806;2024-01-15T11:11:44;8.63;;;1.60;;
19347;SDS011;9810;52.480;9.806;2024-01-15T11:17:02;4.07;;;1.30;;
19347;SDS011;9810;52.480;9.806;2024-01-15T11:19:35;5.30;;;1.47;;
19347;SDS011;9810;52.480;9.806;2024-01-15T11:22:05;2.97;;;1.10;;
19347;SDS011;9810;52.480;9.806;2024-01-15T11:24:35;8.33;;;1.83;;
19347;SDS011;9810;52.480;9.806;2024-01-15T11:27:03;2.60;;;0.93;;
19347;SDS011;9810;52.480;9.806;2024-01-15T11:29:31;3.57;;;1.30;;
19347;SDS011;9810;52.480;9.806;2024-01-15T11:32:00;2.10;;;1.33;;
19347;SDS011;9810;52.480;9.806;2024-01-15T11:34:50;8.63;;;1.60;;
19347;SDS011;9810;52.480;9.806;2024-01-15T11:37:23;5.17;;;1.43;;
19347;SDS011;9810;52.480;9.806;2024-01-15T11:39:51;10.47;;;1.70;;
19347;SDS011;9810;52.480;9.806;2024-01-15T11:42:20;5.27;;;1.50;;
19347;SDS011;9810;52.480;9.806;2024-01-15T11:44:48;2.97;;;0.90;;
19347;SDS011;9810;52.480;9.806;2024-01-15T11:47:20;3.10;;;1.77;;
19347;SDS011;9810;52.480;9.806;2024-01-15T11:50:06;3.90;;;1.40;;
19347;SDS011;9810;52.480;9.806;2024-01-15T11:52:35;4.17;;;2.40;;
19347;SDS011;9810;52.480;9.806;2024-01-15T11:55:11;5.13;;;1.20;;
19347;SDS011;9810;52.480;9.806;2024-01-15T11:57:41;4.60;;;1.00;;
19347;SDS011;9810;52.480;9.806;2024-01-15T12:00:12;8.77;;;1.47;;
19347;SDS011;9810;52.480;9.806;2024-01-15T12:02:41;5.63;;;1.30;;
19347;SDS011;9810;52.480;9.806;2024-01-15T12:05:09;3.37;;;1.40;;
19347;SDS011;9810;52.480;9.806;2024-01-15T12:07:37;6.00;;;1.67;;
19347;SDS011;9810;52.480;9.806;2024-01-15T12:10:07;7.20;;;1.50;;
19347;SDS011;9810;52.480;9.806;2024-01-15T12:12:42;5.50;;;1.20;;
19347;SDS011;9810;52.480;9.806;2024-01-15T12:15:17;7.37;;;1.37;;
19347;SDS011;9810;52.480;9.806;2024-01-15T12:17:46;3.23;;;1.20;;
19347;SDS011;9810;52.480;9.806;2024-01-15T12:20:13;5.50;;;1.10;;
19347;SDS011;9810;52.480;9.806;2024-01-15T12:22:41;9.87;;;1.50;;
19347;SDS011;9810;52.480;9.806;2024-01-15T12:25:08;6.97;;;1.50;;
19347;SDS011;9810;52.480;9.806;2024-01-15T12:27:35;6.20;;;1.60;;
19347;SDS011;9810;52.480;9.806;2024-01-15T12:30:03;4.93;;;1.57;;
19347;SDS011;9810;52.480;9.806;2024-01-15T12:32:32;8.30;;;1.43;;
19347;SDS011;9810;52.480;9.806;2024-01-15T12:35:02;3.73;;;1.40;;
19347;SDS011;9810;52.480;9.806;2024-01-15T12:37:30;5.70;;;1.83;;
19347;SDS011;9810;52.480;9.806;2024-01-15T12:39:58;2.87;;;1.23;;
19347;SDS011;9810;52.480;9.806;2024-01-15T12:42:25;5.10;;;1.77;;
19347;SDS011;9810;52.480;9.806;2024-01-15T12:44:54;4.43;;;1.40;;
19347;SDS011;9810;52.480;9.806;2024-01-15T12:47:22;5.83;;;1.20;;
19347;SDS011;9810;52.480;9.806;2024-01-15T12:49:51;3.07;;;1.00;;
19347;SDS011;9810;52.480;9.806;2024-01-15T12:52:21;4.67;;;1.17;;
19347;SDS011;9810;52.480;9.806;2024-01-15T12:54:48;2.57;;;0.93;;
19347;SDS011;9810;52.480;9.806;2024-01-15T12:57:16;6.30;;;1.13;;
19347;SDS011;9810;52.480;9.806;2024-01-15T12:59:43;6.60;;;1.13;;
19347;SDS011;9810;52.480;9.806;2024-01-15T13:02:10;3.90;;;1.00;;
19347;SDS011;9810;52.480;9.806;2024-01-15T13:04:38;3.07;;;2.17;;
19347;SDS011;9810;52.480;9.806;2024-01-15T13:07:05;6.63;;;1.40;;
19347;SDS011;9810;52.480;9.806;2024-01-15T13:09:34;6.23;;;1.30;;
19347;SDS011;9810;52.480;9.806;2024-01-15T13:12:02;7.87;;;1.27;;
19347;SDS011;9810;52.480;9.806;2024-01-15T13:14:29;6.60;;;1.57;;
19347;SDS011;9810;52.480;9.806;2024-01-15T13:16:56;3.07;;;1.10;;
19347;SDS011;9810;52.480;9.806;2024-01-15T13:19:23;8.33;;;2.17;;
19347;SDS011;9810;52.480;9.806;2024-01-15T13:21:50;9.03;;;2.63;;
19347;SDS011;9810;52.480;9.806;2024-01-15T13:24:18;9.80;;;1.37;;
19347;SDS011;9810;52.480;9.806;2024-01-15T13:26:47;3.10;;;1.23;;
19347;SDS011;9810;52.480;9.806;2024-01-15T13:29:14;5.50;;;1.27;;
19347;SDS011;9810;52.480;9.806;2024-01-15T13:31:41;4.57;;;1.50;;
19347;SDS011;9810;52.480;9.806;2024-01-15T13:34:08;5.00;;;1.40;;
19347;SDS011;9810;52.480;9.806;2024-01-15T13:36:35;8.57;;;2.60;;
19347;SDS011;9810;52.480;9.806;2024-01-15T13:39:04;3.73;;;1.17;;
19347;SDS011;9810;52.480;9.806;2024-01-15T13:41:34;1.63;;;0.97;;
19347;SDS011;9810;52.480;9.806;2024-01-15T13:44:03;4.60;;;1.50;;
19347;SDS011;9810;52.480;9.806;2024-01-15T13:46:30;4.47;;;1.10;;
19347;SDS011;9810;52.480;9.806;2024-01-15T13:48:57;4.73;;;1.83;;
19347;SDS011;9810;52.480;9.806;2024-01-15T13:51:24;4.40;;;1.03;;
19347;SDS011;9810;52.480;9.806;2024-01-15T13:53:51;2.10;;;1.07;;
19347;SDS011;9810;52.480;9.806;2024-01-15T13:56:18;5.60;;;1.00;;
19347;SDS011;9810;52.480;9.806;2024-01-15T13:58:45;4.83;;;0.87;;
19347;SDS011;9810;52.480;9.806;2024-01-15T14:01:15;3.07;;;1.10;;
19347;SDS011;9810;52.480;9.806;2024-01-15T14:03:42;1.80;;;0.80;;
19347;SDS011;9810;52.480;9.806;2024-01-15T14:06:09;3.73;;;1.03;;
19347;SDS011;9810;52.480;9.806;2024-01-15T14:08:37;4.47;;;0.90;;
19347;SDS011;9810;52.480;9.806;2024-01-15T14:11:04;3.83;;;1.63;;
19347;SDS011;9810;52.480;9.806;2024-01-15T14:13:32;4.90;;;1.00;;
19347;SDS011;9810;52.480;9.806;2024-01-15T14:15:59;2.47;;;0.93;;
19347;SDS011;9810;52.480;9.806;2024-01-15T14:18:28;4.47;;;1.70;;
19347;SDS011;9810;52.480;9.806;2024-01-15T14:20:55;7.33;;;1.30;;
19347;SDS011;9810;52.480;9.806;2024-01-15T14:23:21;10.70;;;1.80;;
19347;SDS011;9810;52.480;9.806;2024-01-15T14:25:48;2.40;;;1.10;;
19347;SDS011;9810;52.480;9.806;2024-01-15T14:28:15;4.07;;;1.30;;
19347;SDS011;9810;52.480;9.806;2024-01-15T14:30:42;3.90;;;1.17;;
19347;SDS011;9810;52.480;9.806;2024-01-15T14:33:09;5.53;;;1.30;;
19347;SDS011;9810;52.480;9.806;2024-01-15T14:35:38;6.40;;;1.60;;
19347;SDS011;9810;52.480;9.806;2024-01-15T14:38:05;5.73;;;1.57;;
19347;SDS011;9810;52.480;9.806;2024-01-15T14:40:32;3.00;;;1.30;;
19347;SDS011;9810;52.480;9.806;2024-01-15T14:43:00;4.70;;;1.53;;
19347;SDS011;9810;52.480;9.806;2024-01-15T14:45:28;2.40;;;1.20;;
19347;SDS011;9810;52.480;9.806;2024-01-15T14:47:55;2.77;;;1.10;;
19347;SDS011;9810;52.480;9.806;2024-01-15T14:50:23;8.97;;;2.27;;
19347;SDS011;9810;52.480;9.806;2024-01-15T14:52:51;3.80;;;1.10;;
19347;SDS011;9810;52.480;9.806;2024-01-15T14:55:19;5.97;;;1.23;;
19347;SDS011;9810;52.480;9.806;2024-01-15T14:57:48;5.07;;;1.20;;
19347;SDS011;9810;52.480;9.806;2024-01-15T15:00:15;3.73;;;1.47;;
19347;SDS011;9810;52.480;9.806;2024-01-15T15:02:43;7.93;;;1.40;;
19347;SDS011;9810;52.480;9.806;2024-01-15T15:05:10;2.47;;;1.27;;
19347;SDS011;9810;52.480;9.806;2024-01-15T15:07:38;9.47;;;2.17;;